Aérodrome :
LOGIN :

S'inscrire | Disclaimer

   EN    FR    IT 

 










Légende :    VFR   VFR Marginal   IFR   IFR Intensif   IFR Très Intensif
Visi : 
Plafond : 
>= 8 km
>= 3000ft
5 à 8 km
1000 à 3000 ft
1500m à 5 km
500 à 1000 ft
800 à 1500m
200 à 500 ft
< 800m
< 200 ft
Symboles :   Orages  Brouillard  Fortes neiges  Fortes précipitations  Vent > 20 kt
SIGMETs :   Divers  Orages  Givrage  Turbulence  Onde Orograph.  Cendres Volcan.






- Altitude de l'aérodrome : 55 ft


EGNO - Warton Preston

DERNIER METAR :
  • 111120Z 12005KT 070V170 CAVOK 24/19 Q1016

METARs EXPIRÉS :
  • 111050Z 10007KT 070V130 CAVOK 24/19 Q1016
  • 111020Z 09008KT CAVOK 23/19 Q1016

TAF TAF EGNO
Valide du 11 à 12h jusqu'au 11 à 21h UTC


111104Z 1112/1121 08006KT 9999 FEW045
BECMG 1112/1115 32010KT
PROB40
TEMPO 1112/1121 7000 SHRA
ATIS : +44 1772 856 060



MET'MAP, la Météo Aéronautique d'un coup d'oeil ! - Copyright ORBIFLY Décembre 2007 - Disclaimer

ORBIFLY MET'MAP TEAM :

Programmation & Développement : Alexandra Zaïnal
Sur une idée originale de : Baudouin d'Aumeries
Assistance à la programmation : Marc-Olivier Méhu
Soutien technique & logistique : Manuel Goepfert

Contact : metmap@orbifly.com




SOURCES & CREDITS :

   NOAA